createdAt,value
2023-02-22T00:00:16.331Z,6.74
2023-02-22T00:01:16.567Z,6.73
2023-02-22T00:02:16.498Z,6.71
2023-02-22T00:03:16.363Z,6.70
2023-02-22T00:04:16.252Z,6.70
2023-02-22T00:05:16.243Z,6.70
2023-02-22T00:06:16.245Z,6.69
2023-02-22T00:07:16.232Z,6.70
2023-02-22T00:08:16.382Z,6.69
2023-02-22T00:09:16.190Z,6.66
2023-02-22T00:10:16.189Z,6.66
2023-02-22T00:11:16.526Z,6.64
2023-02-22T00:12:16.152Z,6.64
2023-02-22T00:13:16.317Z,6.64
2023-02-22T00:14:16.120Z,6.61
2023-02-22T00:15:16.124Z,6.61
2023-02-22T00:16:16.137Z,6.58
2023-02-22T00:17:16.099Z,6.58
2023-02-22T00:18:16.383Z,6.58
2023-02-22T00:19:16.060Z,6.58
2023-02-22T00:20:18.458Z,6.58
2023-02-22T00:21:16.338Z,6.58
2023-02-22T00:22:16.022Z,6.55
2023-02-22T00:23:16.201Z,6.55
2023-02-22T00:24:16.181Z,6.54
2023-02-22T00:25:15.980Z,6.52
2023-02-22T00:26:15.998Z,6.55
2023-02-22T00:27:15.951Z,6.54
2023-02-22T00:28:15.957Z,6.54
2023-02-22T00:29:15.953Z,6.54
2023-02-22T00:30:16.324Z,6.54
2023-02-22T00:31:16.186Z,6.54
2023-02-22T00:32:15.992Z,6.54
2023-02-22T00:33:15.898Z,6.54
2023-02-22T00:34:16.060Z,6.52
2023-02-22T00:35:15.855Z,6.49
2023-02-22T00:36:15.843Z,6.48
2023-02-22T00:37:15.825Z,6.46
2023-02-22T00:38:15.821Z,6.48
2023-02-22T00:39:15.831Z,6.48
2023-02-22T00:40:15.795Z,6.46
2023-02-22T00:41:16.184Z,6.48
2023-02-22T00:42:15.774Z,6.48
2023-02-22T00:43:15.754Z,6.46
2023-02-22T00:44:15.765Z,6.46
2023-02-22T00:45:15.714Z,6.48
2023-02-22T00:46:15.741Z,6.48
2023-02-22T00:47:15.714Z,6.49
2023-02-22T00:48:15.693Z,6.48
2023-02-22T00:49:15.675Z,6.49
2023-02-22T00:50:15.671Z,6.51
2023-02-22T00:51:15.899Z,6.51
2023-02-22T00:52:15.655Z,6.51
2023-02-22T00:53:15.804Z,6.52
2023-02-22T00:54:15.612Z,6.52
2023-02-22T00:55:15.594Z,6.52
2023-02-22T00:56:15.591Z,6.54
2023-02-22T00:57:17.614Z,6.54
2023-02-22T00:58:15.732Z,6.55
2023-02-22T00:59:15.550Z,6.52
2023-02-22T01:00:15.547Z,6.51
2023-02-22T01:01:15.848Z,6.49
2023-02-22T01:02:15.551Z,6.49
2023-02-22T01:03:15.513Z,6.49
2023-02-22T01:04:15.482Z,6.46
2023-02-22T01:05:15.492Z,6.46
2023-02-22T01:06:15.449Z,6.46
2023-02-22T01:07:15.441Z,6.43
2023-02-22T01:08:15.677Z,6.43
2023-02-22T01:09:15.408Z,6.44
2023-02-22T01:10:15.412Z,6.46
2023-02-22T01:11:15.674Z,6.46
2023-02-22T01:12:15.378Z,6.46
2023-02-22T01:13:15.540Z,6.48
2023-02-22T01:14:15.350Z,6.46
2023-02-22T01:15:15.337Z,6.46
2023-02-22T01:16:15.404Z,6.48
2023-02-22T01:17:15.327Z,6.48
2023-02-22T01:18:15.474Z,6.48
2023-02-22T01:19:15.297Z,6.49
2023-02-22T01:20:15.279Z,6.49
2023-02-22T01:21:15.591Z,6.51
2023-02-22T01:22:15.250Z,6.48
2023-02-22T01:23:15.247Z,6.44
2023-02-22T01:24:15.405Z,6.44
2023-02-22T01:25:15.206Z,6.44
2023-02-22T01:26:15.196Z,6.41
2023-02-22T01:27:15.184Z,6.40
2023-02-22T01:28:15.217Z,6.38
2023-02-22T01:29:15.340Z,6.40
2023-02-22T01:30:15.364Z,6.41
2023-02-22T01:31:15.560Z,6.41
2023-02-22T01:32:15.169Z,6.40
2023-02-22T01:33:15.128Z,6.40
2023-02-22T01:34:15.279Z,6.40
2023-02-22T01:35:15.254Z,6.40
2023-02-22T01:36:15.083Z,6.41
2023-02-22T01:37:15.052Z,6.41
2023-02-22T01:38:15.040Z,6.41
2023-02-22T01:39:15.031Z,6.41
2023-02-22T01:40:15.104Z,6.43
2023-02-22T01:41:15.495Z,6.43
2023-02-22T01:42:14.992Z,6.41
2023-02-22T01:43:14.968Z,6.38
2023-02-22T01:44:15.135Z,6.37
2023-02-22T01:45:14.937Z,6.37
2023-02-22T01:46:15.154Z,6.36
2023-02-22T01:47:14.939Z,6.34
2023-02-22T01:48:14.927Z,6.34
2023-02-22T01:49:14.915Z,6.33
2023-02-22T01:50:14.883Z,6.30
2023-02-22T01:51:15.153Z,6.30
2023-02-22T01:52:14.855Z,6.30
2023-02-22T01:53:14.841Z,6.30
2023-02-22T01:54:14.837Z,6.27
2023-02-22T01:55:14.993Z,6.28
2023-02-22T01:56:14.818Z,6.28
2023-02-22T01:57:14.972Z,6.28
2023-02-22T01:58:14.775Z,6.27
2023-02-22T01:59:14.751Z,6.28
2023-02-22T02:00:14.776Z,6.27
2023-02-22T02:01:14.992Z,6.27
2023-02-22T02:02:14.741Z,6.25
2023-02-22T02:03:14.711Z,6.22
2023-02-22T02:04:14.793Z,6.25
2023-02-22T02:05:14.678Z,6.25
2023-02-22T02:06:14.669Z,6.22
2023-02-22T02:07:14.832Z,6.22
2023-02-22T02:08:14.654Z,6.22
2023-02-22T02:09:14.634Z,6.22
2023-02-22T02:10:14.616Z,6.22
2023-02-22T02:11:14.810Z,6.21
2023-02-22T02:12:14.610Z,6.25
2023-02-22T02:13:14.879Z,6.22
2023-02-22T02:14:14.771Z,6.25
2023-02-22T02:15:14.558Z,6.27
2023-02-22T02:16:14.543Z,6.25
2023-02-22T02:17:14.528Z,6.27
2023-02-22T02:18:14.529Z,6.25
2023-02-22T02:19:14.541Z,6.22
2023-02-22T02:20:14.512Z,6.21
2023-02-22T02:21:14.678Z,6.19
2023-02-22T02:22:14.470Z,6.18
2023-02-22T02:23:14.455Z,6.18
2023-02-22T02:24:14.617Z,6.17
2023-02-22T02:25:14.588Z,6.17
2023-02-22T02:26:14.454Z,6.17
2023-02-22T02:27:14.410Z,6.17
2023-02-22T02:28:14.399Z,6.15
2023-02-22T02:29:14.371Z,6.17
2023-02-22T02:30:14.602Z,6.17
2023-02-22T02:31:14.517Z,6.17
2023-02-22T02:32:14.448Z,6.18
2023-02-22T02:33:14.328Z,6.17
2023-02-22T02:34:14.308Z,6.19
2023-02-22T02:35:14.298Z,6.19
2023-02-22T02:36:14.466Z,6.19
2023-02-22T02:37:14.276Z,6.19
2023-02-22T02:38:14.269Z,6.21
2023-02-22T02:39:14.246Z,6.19
2023-02-22T02:40:14.284Z,6.19
2023-02-22T02:41:14.452Z,6.18
2023-02-22T02:42:14.201Z,6.17
2023-02-22T02:43:14.377Z,6.17
2023-02-22T02:44:14.185Z,6.15
2023-02-22T02:45:14.176Z,6.15
2023-02-22T02:46:14.152Z,6.14
2023-02-22T02:47:14.178Z,6.14
2023-02-22T02:48:14.151Z,6.15
2023-02-22T02:49:14.137Z,6.17
2023-02-22T02:50:14.095Z,6.17
2023-02-22T02:51:14.147Z,6.18
2023-02-22T02:52:14.256Z,6.19
2023-02-22T02:53:14.077Z,6.15
2023-02-22T02:54:14.246Z,6.17
2023-02-22T02:55:14.044Z,6.17
2023-02-22T02:56:14.054Z,6.15
2023-02-22T02:57:14.020Z,6.17
2023-02-22T02:58:14.002Z,6.17
2023-02-22T02:59:14.001Z,6.17
2023-02-22T03:00:14.147Z,6.18
2023-02-22T03:01:14.106Z,6.15
2023-02-22T03:02:13.943Z,6.14
2023-02-22T03:03:13.951Z,6.15
2023-02-22T03:04:13.932Z,6.15
2023-02-22T03:05:14.086Z,6.15
2023-02-22T03:06:13.896Z,6.15
2023-02-22T03:07:13.957Z,6.14
2023-02-22T03:08:13.893Z,6.14
2023-02-22T03:09:13.902Z,6.12
2023-02-22T03:10:14.023Z,6.14
2023-02-22T03:11:14.271Z,6.12
2023-02-22T03:12:13.822Z,6.14
2023-02-22T03:13:13.819Z,6.11
2023-02-22T03:14:13.971Z,6.11
2023-02-22T03:15:13.782Z,6.09
2023-02-22T03:16:13.821Z,6.09
2023-02-22T03:17:13.769Z,6.09
2023-02-22T03:18:13.760Z,6.11
2023-02-22T03:19:13.770Z,6.12
2023-02-22T03:20:13.720Z,6.09
2023-02-22T03:21:13.830Z,6.09
2023-02-22T03:22:13.693Z,6.08
2023-02-22T03:23:13.874Z,6.06
2023-02-22T03:24:13.665Z,6.03
2023-02-22T03:25:13.819Z,6.00
2023-02-22T03:26:13.651Z,6.00
2023-02-22T03:27:13.635Z,6.00
2023-02-22T03:28:13.620Z,5.99
2023-02-22T03:29:13.782Z,5.99
2023-02-22T03:30:13.621Z,5.97
2023-02-22T03:31:13.819Z,5.94
2023-02-22T03:32:13.616Z,5.94
2023-02-22T03:33:13.551Z,5.94
2023-02-22T03:34:13.543Z,5.94
2023-02-22T03:35:13.709Z,5.91
2023-02-22T03:36:13.524Z,5.90
2023-02-22T03:37:13.501Z,5.91
2023-02-22T03:38:13.483Z,5.90
2023-02-22T03:39:13.485Z,5.89
2023-02-22T03:40:13.458Z,5.86
2023-02-22T03:41:13.622Z,5.86
2023-02-22T03:42:13.615Z,5.83
2023-02-22T03:43:13.418Z,5.81
2023-02-22T03:44:13.409Z,5.81
2023-02-22T03:45:13.397Z,5.81
2023-02-22T03:46:13.525Z,5.79
2023-02-22T03:47:13.378Z,5.71
2023-02-22T03:48:13.358Z,5.67
2023-02-22T03:49:13.354Z,5.65
2023-02-22T03:50:13.331Z,5.64
2023-02-22T03:51:15.016Z,5.61
2023-02-22T03:52:13.300Z,5.58
2023-02-22T03:53:13.304Z,5.58
2023-02-22T03:54:13.448Z,5.58
2023-02-22T03:55:13.271Z,5.56
2023-02-22T03:56:13.254Z,5.54
2023-02-22T03:57:13.269Z,5.53
2023-02-22T03:58:13.240Z,5.54
2023-02-22T03:59:13.399Z,5.56
2023-02-22T04:00:13.226Z,5.56
2023-02-22T04:01:13.197Z,5.57
2023-02-22T04:02:13.185Z,5.57
2023-02-22T04:03:13.202Z,5.57
2023-02-22T04:04:13.443Z,5.54
2023-02-22T04:05:13.153Z,5.54
2023-02-22T04:06:13.309Z,5.53
2023-02-22T04:07:13.303Z,5.51
2023-02-22T04:08:13.095Z,5.53
2023-02-22T04:09:13.082Z,5.51
2023-02-22T04:10:13.073Z,5.53
2023-02-22T04:11:13.056Z,5.54
2023-02-22T04:12:13.052Z,5.53
2023-02-22T04:13:13.033Z,5.51
2023-02-22T04:14:13.014Z,5.51
2023-02-22T04:15:13.032Z,5.49
2023-02-22T04:16:13.081Z,5.49
2023-02-22T04:17:12.992Z,5.48
2023-02-22T04:18:12.970Z,5.45
2023-02-22T04:19:12.962Z,5.45
2023-02-22T04:20:12.941Z,5.43
2023-02-22T04:21:12.930Z,5.39
2023-02-22T04:22:13.100Z,5.36
2023-02-22T04:23:12.902Z,5.31
2023-02-22T04:24:12.893Z,5.31
2023-02-22T04:25:12.877Z,5.28
2023-02-22T04:26:12.887Z,5.30
2023-02-22T04:27:12.848Z,5.28
2023-02-22T04:28:13.028Z,5.24
2023-02-22T04:29:12.842Z,5.24
2023-02-22T04:30:12.814Z,5.25
2023-02-22T04:31:12.833Z,5.24
2023-02-22T04:32:12.904Z,5.21
2023-02-22T04:33:12.958Z,5.22
2023-02-22T04:34:12.775Z,5.21
2023-02-22T04:35:12.752Z,5.21
2023-02-22T04:36:12.747Z,5.20
2023-02-22T04:37:12.717Z,5.21
2023-02-22T04:38:12.716Z,5.21
2023-02-22T04:39:12.711Z,5.18
2023-02-22T04:40:12.687Z,5.17
2023-02-22T04:41:13.011Z,5.17
2023-02-22T04:42:12.859Z,5.17
2023-02-22T04:43:12.635Z,5.17
2023-02-22T04:44:12.636Z,5.12
2023-02-22T04:45:12.635Z,5.09
2023-02-22T04:46:12.676Z,5.07
2023-02-22T04:47:12.584Z,5.04
2023-02-22T04:48:12.583Z,5.04
2023-02-22T04:49:12.564Z,5.03
2023-02-22T04:50:12.734Z,5.00
2023-02-22T04:51:12.707Z,5.02
2023-02-22T04:52:12.722Z,5.00
2023-02-22T04:53:12.513Z,5.00
2023-02-22T04:54:12.505Z,4.99
2023-02-22T04:55:12.666Z,4.97
2023-02-22T04:56:12.480Z,4.96
2023-02-22T04:57:12.641Z,4.92
2023-02-22T04:58:12.464Z,4.88
2023-02-22T04:59:12.433Z,4.86
2023-02-22T05:00:12.422Z,4.85
2023-02-22T05:01:12.412Z,4.85
2023-02-22T05:02:12.445Z,4.82
2023-02-22T05:03:12.381Z,4.77
2023-02-22T05:04:12.378Z,4.75
2023-02-22T05:05:12.361Z,4.75
2023-02-22T05:06:12.524Z,4.75
2023-02-22T05:07:12.342Z,4.72
2023-02-22T05:08:12.721Z,4.70
2023-02-22T05:09:12.299Z,4.67
2023-02-22T05:10:12.300Z,4.67
2023-02-22T05:11:12.289Z,4.67
2023-02-22T05:12:12.270Z,4.66
2023-02-22T05:13:12.581Z,4.65
2023-02-22T05:14:12.420Z,4.60
2023-02-22T05:15:12.229Z,4.59
2023-02-22T05:16:12.320Z,4.54
2023-02-22T05:17:12.220Z,4.51
2023-02-22T05:18:12.205Z,4.48
2023-02-22T05:19:12.861Z,4.48
2023-02-22T05:20:12.367Z,4.51
2023-02-22T05:21:12.155Z,4.50
2023-02-22T05:22:12.144Z,4.48
2023-02-22T05:23:12.303Z,4.48
2023-02-22T05:24:12.131Z,4.47
2023-02-22T05:25:12.289Z,4.47
2023-02-22T05:26:12.093Z,4.44
2023-02-22T05:27:12.096Z,4.44
2023-02-22T05:28:12.095Z,4.42
2023-02-22T05:29:12.053Z,4.44
2023-02-22T05:30:12.079Z,4.42
2023-02-22T05:31:12.081Z,4.42
2023-02-22T05:32:12.022Z,4.40
2023-02-22T05:33:12.012Z,4.40
2023-02-22T05:34:11.994Z,4.36
2023-02-22T05:35:11.967Z,4.37
2023-02-22T05:36:12.144Z,4.36
2023-02-22T05:37:11.952Z,4.34
2023-02-22T05:38:11.944Z,4.34
2023-02-22T05:39:11.923Z,4.32
2023-02-22T05:40:12.105Z,4.30
2023-02-22T05:41:11.972Z,4.29
2023-02-22T05:42:11.887Z,4.27
2023-02-22T05:43:11.885Z,4.27
2023-02-22T05:44:11.874Z,4.26
2023-02-22T05:45:11.843Z,4.23
2023-02-22T05:46:12.018Z,4.23
2023-02-22T05:47:11.974Z,4.22
2023-02-22T05:48:11.804Z,4.20
2023-02-22T05:49:11.810Z,4.18
2023-02-22T05:50:11.794Z,4.18
2023-02-22T05:51:11.772Z,4.14
2023-02-22T05:52:11.762Z,4.12
2023-02-22T05:53:11.769Z,4.11
2023-02-22T05:54:11.735Z,4.12
2023-02-22T05:55:11.712Z,4.11
2023-02-22T05:56:11.710Z,4.12
2023-02-22T05:57:11.729Z,4.11
2023-02-22T05:58:11.689Z,4.12
2023-02-22T05:59:11.668Z,4.12
2023-02-22T06:00:11.650Z,4.11
2023-02-22T06:01:11.650Z,4.11
2023-02-22T06:02:11.658Z,4.11
2023-02-22T06:03:11.661Z,4.09
2023-02-22T06:04:11.596Z,4.09
2023-02-22T06:05:11.816Z,4.11
2023-02-22T06:06:11.745Z,4.09
2023-02-22T06:07:11.569Z,4.08
2023-02-22T06:08:11.565Z,4.09
2023-02-22T06:09:11.542Z,4.08
2023-02-22T06:10:11.540Z,4.06
2023-02-22T06:11:11.515Z,4.08
2023-02-22T06:12:11.504Z,4.05
2023-02-22T06:13:11.494Z,4.05
2023-02-22T06:14:11.475Z,4.06
2023-02-22T06:15:11.472Z,4.02
2023-02-22T06:16:11.707Z,4.00
2023-02-22T06:17:11.442Z,4.02
2023-02-22T06:18:11.421Z,3.97
2023-02-22T06:19:11.415Z,3.96
2023-02-22T06:20:11.563Z,3.96
2023-02-22T06:21:11.558Z,3.94
2023-02-22T06:22:11.361Z,3.93
2023-02-22T06:23:11.361Z,3.94
2023-02-22T06:24:11.340Z,3.94
2023-02-22T06:25:11.329Z,3.96
2023-02-22T06:26:11.507Z,3.94
2023-02-22T06:27:11.299Z,3.94
2023-02-22T06:28:11.291Z,3.94
2023-02-22T06:29:11.287Z,3.94
2023-02-22T06:30:13.160Z,3.93
2023-02-22T06:31:11.466Z,3.91
2023-02-22T06:32:11.283Z,3.90
2023-02-22T06:33:11.229Z,3.90
2023-02-22T06:34:11.218Z,3.90
2023-02-22T06:35:11.217Z,3.90
2023-02-22T06:36:11.361Z,3.88
2023-02-22T06:37:11.185Z,3.88
2023-02-22T06:38:11.181Z,3.90
2023-02-22T06:39:11.158Z,3.90
2023-02-22T06:40:11.145Z,3.88
2023-02-22T06:41:11.319Z,3.88
2023-02-22T06:42:11.147Z,3.90
2023-02-22T06:43:11.134Z,3.90
2023-02-22T06:44:11.082Z,3.88
2023-02-22T06:45:11.084Z,3.90
2023-02-22T06:46:11.053Z,3.90
2023-02-22T06:47:11.053Z,3.90
2023-02-22T06:48:11.053Z,3.90
2023-02-22T06:49:11.030Z,3.93
2023-02-22T06:50:11.002Z,3.93
2023-02-22T06:51:10.998Z,3.93
2023-02-22T06:52:10.982Z,3.94
2023-02-22T06:53:10.981Z,3.94
2023-02-22T06:54:11.132Z,3.96
2023-02-22T06:55:11.120Z,3.96
2023-02-22T06:56:10.922Z,3.97
2023-02-22T06:57:10.923Z,3.96
2023-02-22T06:58:10.910Z,3.97
2023-02-22T06:59:10.901Z,3.96
2023-02-22T07:00:10.910Z,3.97
2023-02-22T07:01:10.907Z,3.96
2023-02-22T07:02:10.877Z,3.97
2023-02-22T07:03:10.865Z,3.96
2023-02-22T07:04:10.840Z,3.97
2023-02-22T07:05:11.150Z,3.97
2023-02-22T07:06:10.812Z,3.98
2023-02-22T07:07:10.828Z,3.98
2023-02-22T07:08:10.772Z,4.00
2023-02-22T07:09:10.770Z,4.00
2023-02-22T07:10:10.921Z,3.98
2023-02-22T07:11:10.770Z,3.98
2023-02-22T07:12:10.770Z,3.98
2023-02-22T07:13:10.713Z,4.00
2023-02-22T07:14:10.708Z,4.00
2023-02-22T07:15:10.881Z,4.00
2023-02-22T07:16:10.860Z,4.02
2023-02-22T07:17:10.737Z,4.00
2023-02-22T07:18:10.661Z,4.00
2023-02-22T07:19:10.641Z,4.02
2023-02-22T07:20:10.810Z,4.04
2023-02-22T07:21:10.625Z,4.05
2023-02-22T07:22:10.601Z,4.06
2023-02-22T07:23:10.601Z,4.08
2023-02-22T07:24:10.572Z,4.09
2023-02-22T07:25:10.573Z,4.11
2023-02-22T07:26:10.560Z,4.12
2023-02-22T07:27:10.550Z,4.12
2023-02-22T07:28:10.525Z,4.14
2023-02-22T07:29:10.538Z,4.15
2023-02-22T07:30:10.713Z,4.14
2023-02-22T07:31:10.487Z,4.14
2023-02-22T07:32:10.556Z,4.14
2023-02-22T07:33:10.515Z,4.15
2023-02-22T07:34:10.441Z,4.15
2023-02-22T07:35:10.619Z,4.18
2023-02-22T07:36:10.438Z,4.20
2023-02-22T07:37:10.419Z,4.22
2023-02-22T07:38:10.436Z,4.24
2023-02-22T07:39:10.389Z,4.27
2023-02-22T07:40:10.370Z,4.29
2023-02-22T07:41:10.538Z,4.30
2023-02-22T07:42:10.336Z,4.32
2023-02-22T07:43:10.346Z,4.33
2023-02-22T07:44:10.324Z,4.36
2023-02-22T07:45:10.333Z,4.36
2023-02-22T07:46:10.311Z,4.37
2023-02-22T07:47:10.285Z,4.40
2023-02-22T07:48:10.265Z,4.41
2023-02-22T07:49:10.266Z,4.42
2023-02-22T07:50:10.240Z,4.44
2023-02-22T07:51:10.273Z,4.45
2023-02-22T07:52:10.224Z,4.48
2023-02-22T07:53:10.215Z,4.51
2023-02-22T07:54:10.198Z,4.52
2023-02-22T07:55:10.174Z,4.52
2023-02-22T07:56:10.367Z,4.54
2023-02-22T07:57:10.168Z,4.58
2023-02-22T07:58:10.145Z,4.60
2023-02-22T07:59:10.144Z,4.63
2023-02-22T08:00:10.118Z,4.65
2023-02-22T08:01:10.128Z,4.66
2023-02-22T08:02:10.157Z,4.67
2023-02-22T08:03:10.102Z,4.72
2023-02-22T08:04:10.064Z,4.75
2023-02-22T08:05:10.081Z,4.78
2023-02-22T08:06:10.044Z,4.80
2023-02-22T08:07:10.037Z,4.84
2023-02-22T08:08:10.193Z,4.86
2023-02-22T08:09:10.021Z,4.89
2023-02-22T08:10:09.981Z,4.92
2023-02-22T08:11:09.988Z,4.97
2023-02-22T08:12:09.966Z,5.02
2023-02-22T08:13:10.121Z,5.03
2023-02-22T08:14:09.933Z,5.09
2023-02-22T08:15:09.938Z,5.12
2023-02-22T08:16:09.910Z,5.17
2023-02-22T08:17:09.917Z,5.21
2023-02-22T08:18:10.202Z,5.25
2023-02-22T08:19:09.878Z,5.31
2023-02-22T08:20:09.890Z,5.35
2023-02-22T08:21:09.853Z,5.40
2023-02-22T08:22:09.838Z,5.43
2023-02-22T08:23:09.829Z,5.49
2023-02-22T08:24:09.847Z,5.54
2023-02-22T08:25:09.807Z,5.57
2023-02-22T08:26:09.788Z,5.63
2023-02-22T08:27:09.767Z,5.65
2023-02-22T08:28:09.776Z,5.72
2023-02-22T08:29:09.748Z,5.78
2023-02-22T08:30:09.778Z,5.82
2023-02-22T08:31:09.731Z,5.86
2023-02-22T08:32:09.825Z,5.91
2023-02-22T08:33:09.810Z,5.96
2023-02-22T08:34:09.666Z,6.00
2023-02-22T08:35:09.666Z,6.06
2023-02-22T08:36:09.839Z,6.11
2023-02-22T08:37:09.678Z,6.17
2023-02-22T08:38:09.634Z,6.21
2023-02-22T08:39:09.632Z,6.27
2023-02-22T08:40:09.646Z,6.34
2023-02-22T08:41:10.325Z,6.40
2023-02-22T08:42:09.626Z,6.46
2023-02-22T08:43:09.573Z,6.52
2023-02-22T08:44:09.723Z,6.58
2023-02-22T08:45:09.533Z,6.66
2023-02-22T08:46:09.572Z,6.73
2023-02-22T08:47:09.521Z,6.80
2023-02-22T08:48:09.516Z,6.88
2023-02-22T08:49:09.493Z,6.97
2023-02-22T08:50:09.480Z,7.05
2023-02-22T08:51:09.496Z,7.12
2023-02-22T08:52:09.638Z,7.21
2023-02-22T08:53:09.428Z,7.25
2023-02-22T08:54:09.446Z,7.32
2023-02-22T08:55:09.407Z,7.37
2023-02-22T08:56:09.385Z,7.45
2023-02-22T08:57:09.555Z,7.50
2023-02-22T08:58:09.585Z,7.57
2023-02-22T08:59:09.354Z,7.67
2023-02-22T09:00:09.341Z,7.72
2023-02-22T09:01:09.365Z,7.79
2023-02-22T09:02:09.329Z,7.86
2023-02-22T09:03:09.507Z,7.92
2023-02-22T09:04:09.307Z,8.00
2023-02-22T09:05:09.282Z,8.05
2023-02-22T09:06:09.317Z,8.12
2023-02-22T09:07:09.263Z,8.20
2023-02-22T09:08:09.268Z,8.25
2023-02-22T09:09:09.254Z,8.33
2023-02-22T09:10:09.230Z,8.36
2023-02-22T09:11:09.208Z,8.44
2023-02-22T09:12:09.177Z,8.53
2023-02-22T09:13:09.197Z,8.62
2023-02-22T09:14:09.186Z,8.71
2023-02-22T09:15:09.169Z,8.79
2023-02-22T09:16:09.217Z,8.84
2023-02-22T09:17:09.429Z,8.86
2023-02-22T09:18:09.100Z,8.92
2023-02-22T09:19:09.089Z,8.99
2023-02-22T09:20:09.102Z,9.08
2023-02-22T09:21:09.068Z,9.17
2023-02-22T09:22:09.218Z,9.24
2023-02-22T09:23:09.038Z,9.31
2023-02-22T09:24:09.043Z,9.39
2023-02-22T09:25:16.650Z,9.47
2023-02-22T09:26:09.995Z,9.58
2023-02-22T09:27:09.007Z,9.66
2023-02-22T09:28:09.074Z,9.74
2023-02-22T09:29:09.305Z,9.79
2023-02-22T09:30:08.955Z,9.90
2023-02-22T09:31:08.942Z,9.99
2023-02-22T09:32:09.068Z,10.07
2023-02-22T09:33:09.037Z,10.15
2023-02-22T09:34:09.208Z,10.23
2023-02-22T09:35:08.895Z,10.33
2023-02-22T09:36:08.864Z,10.41
2023-02-22T09:37:08.893Z,10.51
2023-02-22T09:38:08.853Z,10.55
2023-02-22T09:39:08.848Z,10.63
2023-02-22T09:40:08.820Z,10.71
2023-02-22T09:41:08.804Z,10.78
2023-02-22T09:42:08.796Z,10.85
2023-02-22T09:43:08.794Z,10.91
2023-02-22T09:44:08.942Z,11.02
2023-02-22T09:45:08.753Z,11.11
2023-02-22T09:46:08.756Z,11.21
2023-02-22T09:47:08.727Z,11.29
2023-02-22T09:48:21.370Z,11.37
2023-02-22T09:49:09.891Z,11.44
2023-02-22T09:50:08.682Z,11.47
2023-02-22T09:51:08.672Z,11.54
2023-02-22T09:52:08.661Z,11.67
2023-02-22T09:53:08.672Z,11.76
2023-02-22T09:54:08.674Z,11.86
2023-02-22T09:55:08.637Z,11.96
2023-02-22T09:56:08.602Z,12.07
2023-02-22T09:57:08.623Z,12.17
2023-02-22T09:58:08.601Z,12.27
2023-02-22T09:59:08.587Z,12.35
2023-02-22T10:00:08.870Z,12.45
2023-02-22T10:01:08.545Z,12.50
2023-02-22T10:02:08.584Z,12.56
2023-02-22T10:03:08.512Z,12.64
2023-02-22T10:04:08.512Z,12.70
2023-02-22T10:05:08.643Z,12.77
2023-02-22T10:06:08.474Z,12.82
2023-02-22T10:07:08.471Z,12.87
2023-02-22T10:08:08.459Z,13.00
2023-02-22T10:09:08.454Z,13.08
2023-02-22T10:10:08.451Z,13.14
2023-02-22T10:11:08.420Z,13.22
2023-02-22T10:12:08.517Z,13.30
2023-02-22T10:13:08.392Z,13.33
2023-02-22T10:14:08.371Z,13.42
2023-02-22T10:15:08.423Z,13.54
2023-02-22T10:16:08.424Z,13.62
2023-02-22T10:17:08.350Z,13.64
2023-02-22T10:18:08.320Z,13.70
2023-02-22T10:19:08.403Z,13.73
2023-02-22T10:20:08.302Z,13.77
2023-02-22T10:21:08.472Z,13.77
2023-02-22T10:22:08.271Z,13.73
2023-02-22T10:23:08.260Z,13.71
2023-02-22T10:24:08.240Z,13.75
2023-02-22T10:25:09.711Z,13.77
2023-02-22T10:26:08.231Z,13.79
2023-02-22T10:27:08.221Z,13.82
2023-02-22T10:28:08.219Z,13.85
2023-02-22T10:29:08.190Z,13.88
2023-02-22T10:30:23.405Z,13.89
2023-02-22T10:31:09.296Z,13.91
2023-02-22T10:32:08.226Z,13.96
2023-02-22T10:33:08.140Z,14.00
2023-02-22T10:34:08.119Z,14.02
2023-02-22T10:35:08.130Z,14.06
2023-02-22T10:36:08.092Z,14.06
2023-02-22T10:37:08.090Z,14.07
2023-02-22T10:38:08.062Z,14.07
2023-02-22T10:39:08.077Z,14.04
2023-02-22T10:40:08.054Z,14.10
2023-02-22T10:41:08.035Z,14.17
2023-02-22T10:42:08.041Z,14.22
2023-02-22T10:43:08.010Z,14.28
2023-02-22T10:44:08.002Z,14.35
2023-02-22T10:45:08.201Z,14.37
2023-02-22T10:46:08.056Z,14.47
2023-02-22T10:47:07.984Z,14.57
2023-02-22T10:48:07.940Z,14.62
2023-02-22T10:49:07.936Z,14.69
2023-02-22T10:50:07.912Z,14.78
2023-02-22T10:51:07.968Z,14.92
2023-02-22T10:52:07.896Z,15.02
2023-02-22T10:53:07.890Z,15.11
2023-02-22T10:54:07.871Z,15.07
2023-02-22T10:55:15.401Z,15.02
2023-02-22T10:56:08.883Z,15.03
2023-02-22T10:57:07.848Z,14.99
2023-02-22T10:58:07.822Z,15.01
2023-02-22T10:59:07.812Z,15.01
2023-02-22T11:00:07.971Z,15.01
2023-02-22T11:01:07.793Z,14.96
2023-02-22T11:02:07.767Z,15.01
2023-02-22T11:03:07.762Z,15.02
2023-02-22T11:04:07.759Z,15.06
2023-02-22T11:05:07.818Z,15.07
2023-02-22T11:06:07.818Z,15.06
2023-02-22T11:07:07.790Z,15.06
2023-02-22T11:08:07.768Z,15.11
2023-02-22T11:09:07.757Z,15.19
2023-02-22T11:10:07.709Z,15.27
2023-02-22T11:11:07.646Z,15.36
2023-02-22T11:12:07.679Z,15.54
2023-02-22T11:13:07.628Z,15.67
2023-02-22T11:14:07.607Z,15.71
2023-02-22T11:15:07.615Z,15.67
2023-02-22T11:16:07.585Z,15.69
2023-02-22T11:17:07.578Z,15.74
2023-02-22T11:18:08.870Z,15.76
2023-02-22T11:19:07.552Z,15.80
2023-02-22T11:20:07.712Z,15.82
2023-02-22T11:21:07.525Z,15.78
2023-02-22T11:22:07.517Z,15.76
2023-02-22T11:23:07.494Z,15.83
2023-02-22T11:24:07.505Z,15.94
2023-02-22T11:25:07.517Z,16.08
2023-02-22T11:26:07.500Z,16.24
2023-02-22T11:27:07.582Z,16.34
2023-02-22T11:28:07.594Z,16.39
2023-02-22T11:29:07.474Z,16.39
2023-02-22T11:30:07.432Z,16.45
2023-02-22T11:31:07.553Z,16.57
2023-02-22T11:32:07.426Z,16.66
2023-02-22T11:33:07.391Z,16.68
2023-02-22T11:34:07.356Z,16.71
2023-02-22T11:35:09.274Z,16.73
2023-02-22T11:36:07.322Z,16.79
2023-02-22T11:37:07.322Z,16.85
2023-02-22T11:38:07.496Z,16.83
2023-02-22T11:39:07.321Z,16.79
2023-02-22T11:40:07.270Z,16.83
2023-02-22T11:41:08.197Z,16.83
2023-02-22T11:42:07.241Z,16.83
2023-02-22T11:43:07.229Z,16.82
2023-02-22T11:44:07.228Z,16.85
2023-02-22T11:45:07.205Z,16.89
2023-02-22T11:46:07.215Z,16.97
2023-02-22T11:47:07.351Z,17.07
2023-02-22T11:48:07.157Z,16.96
2023-02-22T11:49:07.149Z,16.86
2023-02-22T11:50:07.136Z,16.85
2023-02-22T11:51:07.118Z,16.75
2023-02-22T11:52:07.286Z,16.76
2023-02-22T11:53:07.089Z,16.85
2023-02-22T11:54:07.092Z,16.85
2023-02-22T11:55:07.056Z,16.79
2023-02-22T11:56:07.067Z,16.76
2023-02-22T11:57:07.221Z,16.78
2023-02-22T11:58:07.057Z,16.88
2023-02-22T11:59:07.006Z,16.93
2023-02-22T12:00:07.015Z,16.98
2023-02-22T12:01:07.079Z,17.01
2023-02-22T12:02:07.002Z,17.07
2023-02-22T12:03:07.136Z,17.07
2023-02-22T12:04:07.018Z,17.07
2023-02-22T12:05:06.941Z,17.12
2023-02-22T12:06:06.956Z,17.06
2023-02-22T12:07:06.924Z,17.06
2023-02-22T12:08:18.875Z,17.06
2023-02-22T12:09:08.062Z,17.06
2023-02-22T12:10:06.873Z,17.00
2023-02-22T12:11:06.851Z,17.06
2023-02-22T12:12:06.844Z,17.01
2023-02-22T12:13:06.848Z,16.96
2023-02-22T12:14:06.993Z,16.82
2023-02-22T12:15:06.825Z,16.71
2023-02-22T12:16:06.851Z,16.67
2023-02-22T12:17:06.773Z,16.70
2023-02-22T12:18:06.770Z,16.75
2023-02-22T12:19:06.932Z,16.70
2023-02-22T12:20:06.755Z,16.66
2023-02-22T12:21:06.724Z,16.63
2023-02-22T12:22:06.713Z,16.61
2023-02-22T12:23:06.695Z,16.57
2023-02-22T12:24:06.877Z,16.56
2023-02-22T12:25:10.318Z,16.56
2023-02-22T12:26:06.779Z,16.56
2023-02-22T12:27:06.870Z,16.46
2023-02-22T12:28:15.640Z,16.45
2023-02-22T12:29:07.623Z,16.45
2023-02-22T12:30:06.697Z,16.46
2023-02-22T12:31:06.655Z,16.48
2023-02-22T12:32:06.583Z,16.49
2023-02-22T12:33:06.593Z,16.52
2023-02-22T12:34:06.640Z,16.53
2023-02-22T12:35:06.545Z,16.53
2023-02-22T12:36:06.565Z,16.52
2023-02-22T12:37:06.526Z,16.48
2023-02-22T12:38:06.507Z,16.45
2023-02-22T12:39:07.703Z,16.45
2023-02-22T12:40:06.486Z,16.45
2023-02-22T12:41:06.497Z,16.43
2023-02-22T12:42:06.466Z,16.43
2023-02-22T12:43:06.443Z,16.45
2023-02-22T12:44:06.460Z,16.42
2023-02-22T12:45:07.407Z,16.34
2023-02-22T12:46:06.602Z,16.30
2023-02-22T12:47:06.384Z,16.30
2023-02-22T12:48:06.388Z,16.28
2023-02-22T12:49:06.548Z,16.30
2023-02-22T12:50:06.346Z,16.33
2023-02-22T12:51:06.472Z,16.38
2023-02-22T12:52:20.530Z,16.35
2023-02-22T12:53:07.311Z,16.41
2023-02-22T12:54:06.488Z,16.42
2023-02-22T12:55:06.297Z,16.43
2023-02-22T12:56:06.311Z,16.43
2023-02-22T12:57:06.266Z,16.45
2023-02-22T12:58:06.247Z,16.46
2023-02-22T12:59:06.251Z,16.45
2023-02-22T13:00:06.395Z,16.45
2023-02-22T13:01:07.275Z,16.46
2023-02-22T13:02:06.215Z,16.45
2023-02-22T13:03:06.185Z,16.38
2023-02-22T13:04:19.803Z,16.24
2023-02-22T13:05:07.217Z,16.23
2023-02-22T13:06:06.176Z,16.23
2023-02-22T13:07:06.321Z,16.25
2023-02-22T13:08:06.108Z,16.25
2023-02-22T13:09:06.118Z,16.20
2023-02-22T13:10:06.083Z,16.17
2023-02-22T13:11:06.175Z,16.14